Strona główna
METAR-TAF:

METAR-TAF

Lotnisko :

Ann Arbor, Michigan, Stany Zjednoczone

Szerokość geograficzna: 42-13-26N, Długość geograficzna: 083-44-24W, wysokość: 255 m

Aktualna obserwacja pogody

Raport powstał 1 godzina i 0 minut temu, godzina 07:53 UTC
Cisza
Temperatura 20°C
Wilgotność 88%
Ciśnienie 1014 hPa
Widzialność: 12.9 km
Zachmurzenie całkowite na wysokości 7500 ft

METAR: KARB 280753Z AUTO 00000KT 8SM OVC075 20/18 A2994 RMK AO2 SLPNO T02000183 PNO

czas: 04:53 (08:53 UTC)


TAF: brakujący

Obserwacja i prognoza pogody dla ponad 4000 lotnisk (raport METAR i TAF).

Dostępne stacje oznaczono żółtymi i czerwonymi punktami na mapie.

Najedź kursorem aby zobaczyć nazwę stacji.

Kliknij aby zobaczyć obserwacje i prognozy pogody.

Aby zmienić mapę: kliknij na zielony przycisk z czarnym krzyżykiem, aby powiększyć; na zielony przycisk z myślnikiem, aby pomniejszyć; na zielone strzałki, aby przejść do map sąsiednich.


METAR-TAF: